Time;durP1;ratioP1;P1;durP2;ratioP2;P2;SDS_P1;SDS_P2;PMS_P1;PMS_P2;Temp;Humidity;BMP_temperature;BMP_pressure;BME280_temperature;BME280_humidity;BME280_pressure;Samples;Min_cycle;Max_cycle;Signal;HPM_P1;HPM_P2
2023/06/04 00:01:34;;;;;;;135.38;120.55;;;;;;;;;;5024641;28;20042;-75
2023/06/04 00:04:01;;;;;;;129.35;115.10;;;;;;;;;;5027576;28;20041;-76
2023/06/04 00:06:28;;;;;;;131.73;116.80;;;;;;;;;;5031685;28;20045;-75
2023/06/04 00:08:55;;;;;;;136.50;122.15;;;;;;;;;;5028691;28;20049;-77
2023/06/04 00:11:22;;;;;;;147.95;125.97;;;;;;;;;;5033817;28;20045;-75
2023/06/04 00:13:49;;;;;;;154.02;125.30;;;;;;;;;;5028197;28;20132;-75
2023/06/04 00:16:17;;;;;;;149.18;122.40;;;;;;;;;;5033015;28;20556;-75
2023/06/04 00:18:44;;;;;;;138.63;124.30;;;;;;;;;;5030177;28;20049;-75
2023/06/04 00:21:11;;;;;;;146.00;122.43;;;;;;;;;;5035159;28;20048;-75
2023/06/04 00:23:38;;;;;;;155.38;131.52;;;;;;;;;;5032786;28;20132;-77
2023/06/04 00:26:04;;;;;;;171.98;131.27;;;;;;;;;;5032569;28;20483;-75
2023/06/04 00:28:31;;;;;;;134.10;119.78;;;;;;;;;;5029257;28;20049;-77
2023/06/04 00:31:04;;;;;;;155.57;124.03;;;;;;;;;;5035485;28;20396;-78
2023/06/04 00:33:32;;;;;;;133.88;120.03;;;;;;;;;;5051465;28;20522;-76
2023/06/04 00:35:59;;;;;;;138.65;124.95;;;;;;;;;;5033976;28;20504;-76
2023/06/04 00:38:27;;;;;;;167.82;135.27;;;;;;;;;;5031068;28;20098;-77
2023/06/04 00:40:56;;;;;;;151.95;128.27;;;;;;;;;;5015433;28;20073;-82
2023/06/04 00:43:25;;;;;;;140.88;125.88;;;;;;;;;;5035202;28;20049;-79
2023/06/04 00:45:52;;;;;;;140.98;125.32;;;;;;;;;;5035844;28;20052;-76
2023/06/04 00:48:20;;;;;;;143.88;126.25;;;;;;;;;;5027502;28;20046;-75
2023/06/04 00:50:48;;;;;;;142.02;127.32;;;;;;;;;;5043940;28;20049;-76
2023/06/04 00:53:15;;;;;;;148.32;129.60;;;;;;;;;;5031195;28;20063;-76
2023/06/04 00:55:42;;;;;;;147.77;131.50;;;;;;;;;;5029373;28;20069;-78
2023/06/04 00:58:09;;;;;;;143.70;126.80;;;;;;;;;;5029381;28;20510;-82
2023/06/04 01:00:36;;;;;;;148.20;128.75;;;;;;;;;;5036617;28;20037;-78
2023/06/04 01:03:07;;;;;;;142.57;127.20;;;;;;;;;;5027130;28;20053;-75
2023/06/04 01:05:34;;;;;;;155.13;133.32;;;;;;;;;;5028099;28;20053;-76
2023/06/04 01:08:01;;;;;;;200.13;144.85;;;;;;;;;;5031580;28;20128;-81
2023/06/04 01:10:28;;;;;;;153.52;136.70;;;;;;;;;;5036894;28;20053;-76
2023/06/04 01:12:55;;;;;;;168.73;143.63;;;;;;;;;;5028291;28;20454;-76
2023/06/04 01:15:22;;;;;;;163.13;139.35;;;;;;;;;;5032417;28;20091;-75
2023/06/04 01:17:51;;;;;;;180.27;146.77;;;;;;;;;;5027596;28;20120;-77
2023/06/04 01:20:32;;;;;;;189.80;148.65;;;;;;;;;;5026869;28;20128;-77
2023/06/04 01:22:59;;;;;;;202.85;155.15;;;;;;;;;;5013263;28;20045;-77
2023/06/04 01:25:38;;;;;;;181.27;150.07;;;;;;;;;;5041838;28;20080;-79
2023/06/04 01:28:12;;;;;;;181.50;153.43;;;;;;;;;;5046455;28;20053;-75
2023/06/04 01:30:50;;;;;;;;;;;;;;;;;;5027505;28;20105;-75
2023/06/04 01:33:18;;;;;;;196.80;160.85;;;;;;;;;;5031579;28;19939;-76
2023/06/04 01:35:46;;;;;;;185.65;164.98;;;;;;;;;;5026586;28;20623;-77
2023/06/04 01:38:13;;;;;;;249.07;176.82;;;;;;;;;;5027423;28;20054;-74
2023/06/04 01:40:40;;;;;;;199.27;167.35;;;;;;;;;;5028113;28;20141;-75
2023/06/04 01:43:07;;;;;;;210.68;174.23;;;;;;;;;;5034105;28;20037;-74
2023/06/04 01:45:35;;;;;;;228.65;170.30;;;;;;;;;;5030502;28;20074;-75
2023/06/04 01:48:03;;;;;;;185.93;166.02;;;;;;;;;;5023383;28;20064;-76
2023/06/04 01:50:31;;;;;;;211.32;167.10;;;;;;;;;;5026123;28;20049;-77
2023/06/04 01:52:58;;;;;;;216.52;178.25;;;;;;;;;;5026442;28;20076;-80
2023/06/04 01:55:25;;;;;;;201.45;172.40;;;;;;;;;;5033081;28;20050;-75
2023/06/04 01:57:53;;;;;;;191.93;169.52;;;;;;;;;;5012524;28;20061;-80
2023/06/04 02:03:22;;;;;;;212.57;187.07;;;;;;;;;;4956636;28;20043;-74
2023/06/04 02:05:50;;;;;;;206.93;185.30;;;;;;;;;;4966316;28;20468;-75
2023/06/04 02:08:18;;;;;;;209.15;187.07;;;;;;;;;;4963293;28;20068;-74
2023/06/04 02:10:47;;;;;;;206.10;184.75;;;;;;;;;;4955908;28;20126;-76
2023/06/04 02:13:15;;;;;;;211.23;188.80;;;;;;;;;;4965665;28;20058;-77
2023/06/04 02:15:42;;;;;;;218.75;192.38;;;;;;;;;;4966097;28;20044;-74
2023/06/04 02:18:16;;;;;;;230.40;191.25;;;;;;;;;;4945614;28;20065;-75
2023/06/04 02:20:45;;;;;;;208.38;186.88;;;;;;;;;;4966619;28;20102;-74
2023/06/04 02:23:13;;;;;;;233.38;196.93;;;;;;;;;;4962759;28;20493;-75
2023/06/04 02:25:40;;;;;;;220.13;194.73;;;;;;;;;;4961918;28;20571;-77
2023/06/04 02:28:08;;;;;;;227.18;202.45;;;;;;;;;;4964648;28;20544;-77
2023/06/04 02:30:36;;;;;;;218.88;194.18;;;;;;;;;;4963762;28;20109;-76
2023/06/04 02:33:03;;;;;;;249.70;208.15;;;;;;;;;;4952259;28;20125;-75
2023/06/04 02:35:31;;;;;;;254.07;212.88;;;;;;;;;;4964023;28;21430;-75
2023/06/04 02:37:58;;;;;;;230.23;204.55;;;;;;;;;;4964495;28;20468;-76
2023/06/04 02:40:26;;;;;;;228.45;204.52;;;;;;;;;;4955879;28;20082;-75
2023/06/04 02:42:54;;;;;;;230.50;206.10;;;;;;;;;;4946373;28;20508;-75
2023/06/04 02:45:21;;;;;;;244.10;207.68;;;;;;;;;;4936902;28;20039;-76
2023/06/04 02:47:49;;;;;;;244.95;214.90;;;;;;;;;;4965966;28;20339;-76
2023/06/04 02:50:16;;;;;;;250.90;214.38;;;;;;;;;;4964401;28;20082;-75
2023/06/04 02:52:44;;;;;;;236.38;210.65;;;;;;;;;;4957113;28;20125;-75
2023/06/04 02:55:12;;;;;;;240.07;213.95;;;;;;;;;;4964317;28;20046;-77
2023/06/04 02:57:41;;;;;;;245.95;215.77;;;;;;;;;;4945597;28;20137;-76
2023/06/04 03:00:12;;;;;;;247.00;218.00;;;;;;;;;;4964464;28;20102;-77
2023/06/04 03:02:46;;;;;;;247.43;217.85;;;;;;;;;;4932203;28;20061;-77
2023/06/04 03:05:17;;;;;;;275.80;230.20;;;;;;;;;;4963132;28;20082;-75
2023/06/04 03:07:45;;;;;;;253.40;224.80;;;;;;;;;;4962500;28;20078;-75
2023/06/04 03:10:13;;;;;;;253.23;224.85;;;;;;;;;;4953327;28;20658;-76
2023/06/04 03:12:40;;;;;;;262.65;227.43;;;;;;;;;;4953250;28;20051;-76
2023/06/04 03:15:09;;;;;;;259.30;230.73;;;;;;;;;;4963957;28;20041;-74
2023/06/04 03:17:36;;;;;;;253.55;226.38;;;;;;;;;;4963212;28;20047;-76
2023/06/04 03:20:05;;;;;;;296.73;241.73;;;;;;;;;;4944621;28;20161;-75
2023/06/04 03:22:33;;;;;;;264.17;237.77;;;;;;;;;;4960045;28;20066;-76
2023/06/04 03:25:01;;;;;;;273.08;245.00;;;;;;;;;;4960478;28;20035;-76
2023/06/04 03:27:28;;;;;;;267.02;240.00;;;;;;;;;;4960340;28;20047;-76
2023/06/04 03:29:55;;;;;;;273.77;245.90;;;;;;;;;;4969112;28;20047;-74
2023/06/04 03:32:22;;;;;;;272.98;244.00;;;;;;;;;;4967319;28;20043;-74
2023/06/04 03:34:50;;;;;;;277.30;249.20;;;;;;;;;;4948421;28;20117;-75
2023/06/04 03:37:17;;;;;;;277.27;249.77;;;;;;;;;;4967526;28;20046;-75
2023/06/04 03:39:45;;;;;;;280.90;252.15;;;;;;;;;;4946718;28;20070;-74
2023/06/04 03:42:15;;;;;;;280.25;251.80;;;;;;;;;;4955980;28;20065;-73
2023/06/04 03:44:42;;;;;;;281.20;253.40;;;;;;;;;;4942144;28;20054;-74
2023/06/04 03:47:10;;;;;;;295.63;262.95;;;;;;;;;;4967153;28;20061;-73
2023/06/04 03:49:38;;;;;;;287.23;256.85;;;;;;;;;;4947123;28;20058;-75
2023/06/04 03:52:05;;;;;;;292.83;262.33;;;;;;;;;;4952364;28;20051;-73
2023/06/04 03:54:33;;;;;;;289.95;261.00;;;;;;;;;;4964433;28;20050;-75
2023/06/04 03:57:01;;;;;;;295.42;265.35;;;;;;;;;;4962165;28;20586;-75
2023/06/04 03:59:29;;;;;;;297.83;268.73;;;;;;;;;;4956567;28;20054;-75
2023/06/04 04:01:56;;;;;;;310.33;276.65;;;;;;;;;;4947099;28;20054;-73
2023/06/04 04:04:24;;;;;;;311.17;280.27;;;;;;;;;;4966296;28;20101;-73
2023/06/04 04:06:52;;;;;;;323.42;292.17;;;;;;;;;;4964296;28;20047;-74
2023/06/04 04:09:19;;;;;;;335.10;302.00;;;;;;;;;;4965676;28;20098;-75
2023/06/04 04:11:46;;;;;;;346.90;312.48;;;;;;;;;;4964859;28;20041;-73
2023/06/04 04:14:14;;;;;;;351.55;316.48;;;;;;;;;;4968040;28;20097;-74
2023/06/04 04:16:42;;;;;;;351.10;318.50;;;;;;;;;;4942228;28;20657;-73
2023/06/04 04:19:09;;;;;;;362.83;327.48;;;;;;;;;;4952167;28;20723;-74
2023/06/04 04:21:37;;;;;;;366.42;333.33;;;;;;;;;;4965515;28;20074;-73
2023/06/04 04:24:05;;;;;;;370.70;337.38;;;;;;;;;;4950790;28;20051;-74
2023/06/04 04:26:34;;;;;;;390.17;353.90;;;;;;;;;;4948273;28;20061;-75
2023/06/04 04:29:01;;;;;;;392.95;358.75;;;;;;;;;;4959727;28;20404;-76
2023/06/04 04:31:31;;;;;;;385.05;352.92;;;;;;;;;;4964124;28;20126;-74
2023/06/04 04:34:00;;;;;;;404.98;369.70;;;;;;;;;;4966061;28;20105;-73
2023/06/04 04:36:27;;;;;;;402.15;368.55;;;;;;;;;;4946518;28;20403;-72
2023/06/04 04:38:55;;;;;;;415.77;382.20;;;;;;;;;;4940448;28;20066;-74
2023/06/04 04:41:30;;;;;;;424.83;389.75;;;;;;;;;;4965055;28;20118;-75
2023/06/04 04:44:05;;;;;;;432.10;397.73;;;;;;;;;;4930843;28;20043;-75
2023/06/04 04:46:32;;;;;;;439.80;402.63;;;;;;;;;;4964811;28;20061;-75
2023/06/04 04:49:00;;;;;;;439.08;401.92;;;;;;;;;;4963797;28;20057;-74
2023/06/04 04:51:28;;;;;;;448.98;413.27;;;;;;;;;;4964327;28;20049;-73
2023/06/04 04:53:57;;;;;;;519.88;476.10;;;;;;;;;;4953599;28;20039;-73
2023/06/04 04:56:26;;;;;;;587.92;534.45;;;;;;;;;;4964772;28;20046;-73
2023/06/04 04:58:54;;;;;;;574.70;523.97;;;;;;;;;;4956562;28;20488;-72
2023/06/04 05:01:21;;;;;;;591.55;537.92;;;;;;;;;;4940200;28;20051;-74
2023/06/04 05:03:48;;;;;;;584.88;533.22;;;;;;;;;;4965502;28;20099;-75
2023/06/04 05:06:16;;;;;;;584.58;532.33;;;;;;;;;;4967001;28;20047;-74
2023/06/04 05:08:45;;;;;;;609.58;556.08;;;;;;;;;;4939495;28;20050;-76
2023/06/04 05:11:13;;;;;;;578.03;526.22;;;;;;;;;;4964745;28;20042;-74
2023/06/04 05:13:44;;;;;;;613.45;565.08;;;;;;;;;;4954036;28;20055;-75
2023/06/04 05:16:12;;;;;;;677.08;622.05;;;;;;;;;;4963739;28;20043;-75
2023/06/04 05:18:44;;;;;;;666.25;614.15;;;;;;;;;;4933081;29;20480;-75
2023/06/04 05:21:17;;;;;;;659.60;607.22;;;;;;;;;;4964153;28;20080;-74
2023/06/04 05:23:51;;;;;;;676.42;623.85;;;;;;;;;;4940780;28;20373;-75
2023/06/04 05:26:23;;;;;;;709.78;653.22;;;;;;;;;;4940193;28;20046;-76
2023/06/04 05:28:52;;;;;;;704.53;650.00;;;;;;;;;;4954442;28;20138;-77
2023/06/04 05:31:20;;;;;;;709.25;654.00;;;;;;;;;;4946496;28;20484;-77
2023/06/04 05:33:49;;;;;;;766.50;705.25;;;;;;;;;;4965953;28;20043;-76
2023/06/04 05:36:19;;;;;;;768.17;707.42;;;;;;;;;;4949796;28;20043;-74
2023/06/04 05:38:57;;;;;;;;;;;;;;;;;;4967866;28;20053;-76
2023/06/04 05:41:30;;;;;;;751.67;693.22;;;;;;;;;;4981604;28;19929;-75
2023/06/04 05:43:59;;;;;;;774.95;713.65;;;;;;;;;;4953749;28;20504;-75
2023/06/04 05:46:28;;;;;;;766.10;702.55;;;;;;;;;;4952753;28;20130;-75
2023/06/04 05:48:55;;;;;;;770.78;709.20;;;;;;;;;;4946602;28;20381;-73
2023/06/04 05:51:24;;;;;;;782.85;719.42;;;;;;;;;;4944584;28;20053;-74
2023/06/04 05:53:51;;;;;;;778.85;717.22;;;;;;;;;;4948968;28;20129;-75
2023/06/04 05:56:18;;;;;;;786.25;721.83;;;;;;;;;;4964851;28;20804;-74
2023/06/04 05:58:51;;;;;;;767.15;705.30;;;;;;;;;;4929997;28;20051;-74
2023/06/04 06:01:19;;;;;;;785.10;721.33;;;;;;;;;;4938624;28;20054;-74
2023/06/04 06:03:48;;;;;;;803.88;739.22;;;;;;;;;;4953980;28;20057;-74
2023/06/04 06:06:18;;;;;;;795.60;730.67;;;;;;;;;;4964810;28;20050;-74
2023/06/04 06:08:45;;;;;;;796.65;732.40;;;;;;;;;;4964049;28;20421;-77
2023/06/04 06:11:12;;;;;;;823.33;754.13;;;;;;;;;;4944793;28;20055;-76
2023/06/04 06:13:40;;;;;;;815.97;748.90;;;;;;;;;;4967733;28;20043;-78
2023/06/04 06:16:08;;;;;;;809.72;744.78;;;;;;;;;;4952912;28;20078;-77
2023/06/04 06:18:35;;;;;;;789.83;726.15;;;;;;;;;;4964187;28;20081;-77
2023/06/04 06:21:03;;;;;;;803.72;738.15;;;;;;;;;;4960712;28;20066;-76
2023/06/04 06:23:30;;;;;;;814.50;747.63;;;;;;;;;;4965026;28;20049;-77
2023/06/04 06:26:01;;;;;;;816.38;749.88;;;;;;;;;;4952636;28;20055;-77
2023/06/04 06:28:30;;;;;;;840.38;770.25;;;;;;;;;;4949070;28;20273;-77
2023/06/04 06:30:58;;;;;;;840.67;771.42;;;;;;;;;;4961517;28;20046;-81
2023/06/04 06:33:25;;;;;;;854.92;785.17;;;;;;;;;;4963100;28;20043;-76
2023/06/04 06:35:52;;;;;;;879.25;805.60;;;;;;;;;;4965244;28;20393;-75
2023/06/04 06:38:19;;;;;;;865.78;792.20;;;;;;;;;;4964287;28;20177;-75
2023/06/04 06:40:46;;;;;;;834.40;766.30;;;;;;;;;;4962010;28;20126;-75
2023/06/04 06:43:13;;;;;;;831.15;761.65;;;;;;;;;;4967233;28;20050;-75
2023/06/04 06:45:40;;;;;;;848.47;777.35;;;;;;;;;;4964913;28;20471;-77
2023/06/04 06:48:08;;;;;;;888.30;814.05;;;;;;;;;;4964357;28;20042;-75
2023/06/04 06:50:35;;;;;;;969.83;886.55;;;;;;;;;;4964303;28;20050;-76
2023/06/04 06:53:03;;;;;;;1049.57;961.42;;;;;;;;;;4944068;28;20381;-75
2023/06/04 06:55:30;;;;;;;1080.80;989.60;;;;;;;;;;4968414;28;20051;-77
2023/06/04 06:57:58;;;;;;;1112.45;999.90;;;;;;;;;;4967953;28;20043;-76
2023/06/04 07:00:26;;;;;;;1156.15;999.90;;;;;;;;;;4954388;28;20516;-80
2023/06/04 07:02:53;;;;;;;1189.07;999.90;;;;;;;;;;4964254;28;20137;-73
2023/06/04 07:05:21;;;;;;;1196.53;999.90;;;;;;;;;;4966189;28;20939;-75
2023/06/04 07:07:48;;;;;;;1133.93;999.90;;;;;;;;;;4968842;28;20054;-75
2023/06/04 07:10:15;;;;;;;1071.90;981.63;;;;;;;;;;4954128;28;20496;-74
2023/06/04 07:12:42;;;;;;;1031.00;943.47;;;;;;;;;;4962450;28;20043;-74
2023/06/04 07:15:10;;;;;;;995.97;911.70;;;;;;;;;;4966713;28;20065;-75
2023/06/04 07:17:37;;;;;;;956.33;876.25;;;;;;;;;;4963092;28;20038;-76
2023/06/04 07:20:06;;;;;;;958.72;877.03;;;;;;;;;;4960506;28;20518;-77
2023/06/04 07:22:34;;;;;;;921.22;844.67;;;;;;;;;;4961586;28;20118;-74
2023/06/04 07:25:00;;;;;;;926.50;848.38;;;;;;;;;;4966481;28;20054;-75
2023/06/04 07:27:27;;;;;;;922.08;842.85;;;;;;;;;;4961215;28;20105;-75
2023/06/04 07:29:54;;;;;;;894.20;820.17;;;;;;;;;;4966421;28;20050;-74
2023/06/04 07:32:21;;;;;;;928.25;849.47;;;;;;;;;;4963065;28;20055;-70
2023/06/04 07:34:48;;;;;;;911.88;835.90;;;;;;;;;;4945284;28;20126;-72
2023/06/04 07:37:15;;;;;;;886.38;813.80;;;;;;;;;;4967015;28;20051;-70
2023/06/04 07:39:41;;;;;;;915.33;839.15;;;;;;;;;;4961803;28;20110;-72
2023/06/04 07:42:08;;;;;;;923.92;841.95;;;;;;;;;;4964729;28;20091;-72
2023/06/04 07:44:36;;;;;;;920.67;844.88;;;;;;;;;;4945812;28;20135;-71
2023/06/04 07:47:03;;;;;;;1034.00;949.40;;;;;;;;;;4949869;28;20106;-71
2023/06/04 07:49:29;;;;;;;1042.10;958.53;;;;;;;;;;4965693;28;20051;-70
2023/06/04 07:51:56;;;;;;;1055.10;971.90;;;;;;;;;;4966461;28;20114;-71
2023/06/04 07:54:23;;;;;;;1052.32;967.17;;;;;;;;;;4947046;28;20051;-70
2023/06/04 07:56:55;;;;;;;1013.08;933.58;;;;;;;;;;4964140;28;20040;-72
2023/06/04 07:59:22;;;;;;;999.97;921.30;;;;;;;;;;4945587;28;20141;-70
2023/06/04 08:01:52;;;;;;;975.45;900.05;;;;;;;;;;4961850;28;20469;-71
2023/06/04 08:04:18;;;;;;;962.97;885.58;;;;;;;;;;4964917;28;20046;-71
2023/06/04 08:06:46;;;;;;;977.15;900.63;;;;;;;;;;4962443;28;20382;-70
2023/06/04 08:09:13;;;;;;;970.42;893.83;;;;;;;;;;4952108;28;20054;-71
2023/06/04 08:11:41;;;;;;;952.58;877.70;;;;;;;;;;4965336;28;20066;-72
2023/06/04 08:14:07;;;;;;;947.13;871.25;;;;;;;;;;4961000;28;20051;-70
2023/06/04 08:16:34;;;;;;;983.63;897.28;;;;;;;;;;4966938;28;20499;-73
2023/06/04 08:19:01;;;;;;;960.58;877.10;;;;;;;;;;4968056;28;20456;-69
2023/06/04 08:21:28;;;;;;;1037.53;853.97;;;;;;;;;;4966275;28;20125;-69
2023/06/04 08:23:55;;;;;;;929.75;855.30;;;;;;;;;;4957453;28;20051;-67
2023/06/04 08:26:23;;;;;;;921.83;848.28;;;;;;;;;;4968572;28;20496;-68
2023/06/04 08:28:50;;;;;;;913.50;839.38;;;;;;;;;;4969100;28;20051;-69
2023/06/04 08:31:17;;;;;;;898.78;824.55;;;;;;;;;;4967609;28;20047;-68
2023/06/04 08:33:47;;;;;;;898.97;825.83;;;;;;;;;;4965799;28;20035;-69
2023/06/04 08:36:17;;;;;;;894.10;822.42;;;;;;;;;;4965576;28;20035;-70
2023/06/04 08:38:44;;;;;;;900.65;829.03;;;;;;;;;;4962359;28;20046;-70
2023/06/04 08:41:29;;;;;;;917.83;841.50;;;;;;;;;;4965278;28;20054;-71
2023/06/04 08:44:01;;;;;;;907.60;835.80;;;;;;;;;;4965944;28;20050;-70
2023/06/04 08:46:31;;;;;;;918.50;844.17;;;;;;;;;;4955322;28;20047;-71
2023/06/04 08:49:01;;;;;;;917.00;841.15;;;;;;;;;;4967189;28;20045;-67
2023/06/04 08:51:29;;;;;;;916.53;841.33;;;;;;;;;;4968219;28;20074;-69
2023/06/04 08:53:57;;;;;;;929.78;853.63;;;;;;;;;;4964607;28;20070;-69
2023/06/04 08:56:25;;;;;;;916.25;841.42;;;;;;;;;;4956045;28;20092;-71
2023/06/04 08:58:54;;;;;;;921.97;845.45;;;;;;;;;;4950116;28;20062;-67
2023/06/04 09:01:22;;;;;;;941.55;863.13;;;;;;;;;;4956041;28;20079;-71
2023/06/04 09:03:49;;;;;;;949.53;866.05;;;;;;;;;;4928983;28;20050;-69
2023/06/04 09:06:16;;;;;;;953.92;866.35;;;;;;;;;;4940068;28;20051;-69
2023/06/04 09:08:45;;;;;;;933.08;851.85;;;;;;;;;;4966043;28;20043;-76
2023/06/04 09:11:23;;;;;;;934.20;854.72;;;;;;;;;;4960638;28;20054;-68
2023/06/04 09:13:51;;;;;;;921.45;845.42;;;;;;;;;;4954803;28;20139;-67
2023/06/04 09:16:18;;;;;;;919.03;845.10;;;;;;;;;;4967677;28;20113;-67
2023/06/04 09:18:45;;;;;;;918.50;843.70;;;;;;;;;;4955634;28;20043;-66
2023/06/04 09:21:12;;;;;;;909.67;834.67;;;;;;;;;;4946248;28;20035;-72
2023/06/04 09:23:43;;;;;;;928.22;853.38;;;;;;;;;;4947114;28;20043;-74
2023/06/04 09:26:10;;;;;;;926.35;847.45;;;;;;;;;;4969883;28;20050;-74
2023/06/04 09:28:40;;;;;;;914.45;839.78;;;;;;;;;;4964599;28;20043;-69
2023/06/04 09:31:15;;;;;;;921.22;846.75;;;;;;;;;;4963899;28;20047;-69
2023/06/04 09:33:45;;;;;;;925.92;852.10;;;;;;;;;;4964430;28;20046;-68
2023/06/04 09:36:13;;;;;;;919.00;846.15;;;;;;;;;;4947049;28;20047;-69
2023/06/04 09:38:41;;;;;;;911.15;836.22;;;;;;;;;;4965566;28;20094;-69
2023/06/04 09:41:12;;;;;;;912.78;837.70;;;;;;;;;;4923888;28;20050;-67
2023/06/04 09:43:40;;;;;;;899.90;826.83;;;;;;;;;;4964631;28;20043;-69
2023/06/04 09:46:14;;;;;;;900.72;827.97;;;;;;;;;;4955090;28;20050;-67
2023/06/04 09:48:42;;;;;;;896.75;824.50;;;;;;;;;;4964286;28;20045;-71
2023/06/04 09:51:10;;;;;;;888.65;814.15;;;;;;;;;;4952427;28;20051;-67
2023/06/04 09:53:37;;;;;;;884.20;812.10;;;;;;;;;;4964503;28;20042;-69
2023/06/04 09:56:10;;;;;;;896.85;826.25;;;;;;;;;;4954604;28;20130;-67
2023/06/04 09:58:37;;;;;;;883.27;814.80;;;;;;;;;;4960788;28;20043;-67
2023/06/04 10:01:05;;;;;;;871.75;804.65;;;;;;;;;;4968254;28;20297;-69
2023/06/04 10:03:36;;;;;;;892.35;824.13;;;;;;;;;;4965582;28;20061;-69
2023/06/04 10:06:05;;;;;;;882.92;815.35;;;;;;;;;;4963334;28;20054;-67
2023/06/04 10:08:33;;;;;;;889.88;817.38;;;;;;;;;;4964878;28;20043;-68
2023/06/04 10:11:01;;;;;;;895.75;824.30;;;;;;;;;;4964993;28;20050;-68
2023/06/04 10:13:37;;;;;;;897.28;825.33;;;;;;;;;;4965463;28;20410;-68
2023/06/04 10:16:06;;;;;;;878.85;811.47;;;;;;;;;;4962422;28;20043;-68
2023/06/04 10:18:35;;;;;;;976.83;889.03;;;;;;;;;;4964093;28;20049;-67
2023/06/04 10:21:02;;;;;;;690.10;637.47;;;;;;;;;;4967130;28;20063;-68
2023/06/04 10:23:29;;;;;;;482.27;447.33;;;;;;;;;;4965249;28;20045;-67
2023/06/04 10:25:56;;;;;;;56.53;51.28;;;;;;;;;;4961785;28;20089;-67
2023/06/04 10:28:23;;;;;;;45.20;20.52;;;;;;;;;;4964159;28;20515;-67
2023/06/04 10:30:51;;;;;;;57.40;5.88;;;;;;;;;;4964899;28;20124;-68
2023/06/04 10:33:19;;;;;;;38.72;3.40;;;;;;;;;;4966250;28;20049;-69
2023/06/04 10:35:47;;;;;;;46.75;3.97;;;;;;;;;;4946235;28;20078;-68
2023/06/04 10:38:16;;;;;;;57.85;4.75;;;;;;;;;;4969717;28;20105;-68
2023/06/04 10:40:43;;;;;;;43.17;3.85;;;;;;;;;;4945228;28;20134;-68
2023/06/04 10:43:11;;;;;;;62.13;5.15;;;;;;;;;;4965704;28;20066;-67
2023/06/04 10:45:38;;;;;;;30.15;3.08;;;;;;;;;;4960645;28;20058;-68
2023/06/04 10:48:06;;;;;;;12.25;1.85;;;;;;;;;;4967536;28;20380;-67
2023/06/04 10:50:33;;;;;;;56.10;4.20;;;;;;;;;;4964293;28;20473;-68
2023/06/04 10:53:03;;;;;;;27.80;2.88;;;;;;;;;;4947772;28;20051;-71
2023/06/04 10:55:30;;;;;;;28.30;2.83;;;;;;;;;;4966301;28;20099;-68
2023/06/04 10:57:57;;;;;;;22.10;2.20;;;;;;;;;;4965724;28;20043;-68
2023/06/04 11:00:40;;;;;;;25.67;2.40;;;;;;;;;;4965625;28;20050;-70
2023/06/04 11:03:10;;;;;;;40.42;3.63;;;;;;;;;;4960305;28;20465;-67
2023/06/04 11:05:37;;;;;;;33.63;3.00;;;;;;;;;;4962880;28;20122;-68
2023/06/04 11:08:05;;;;;;;12.35;1.73;;;;;;;;;;4966420;28;20057;-70
2023/06/04 11:10:33;;;;;;;27.85;2.90;;;;;;;;;;4948816;28;20051;-68
2023/06/04 11:13:00;;;;;;;22.02;2.03;;;;;;;;;;4949071;28;20130;-69
2023/06/04 11:15:36;;;;;;;16.75;2.08;;;;;;;;;;4965344;28;20731;-67
2023/06/04 11:18:04;;;;;;;27.52;2.92;;;;;;;;;;4962679;28;20392;-68
2023/06/04 11:20:30;;;;;;;41.15;4.03;;;;;;;;;;4945765;28;23302;-67
2023/06/04 11:22:59;;;;;;;12.70;2.55;;;;;;;;;;4963326;28;20044;-68
2023/06/04 11:25:26;;;;;;;26.25;4.15;;;;;;;;;;4947097;28;20408;-68
2023/06/04 11:27:53;;;;;;;31.88;5.03;;;;;;;;;;4952364;28;20054;-68
2023/06/04 11:30:20;;;;;;;41.92;5.32;;;;;;;;;;4963854;28;20528;-68
2023/06/04 11:32:47;;;;;;;34.53;5.82;;;;;;;;;;4962443;28;20046;-67
2023/06/04 11:35:13;;;;;;;75.35;9.90;;;;;;;;;;4944966;28;20047;-69
2023/06/04 11:37:40;;;;;;;45.67;9.43;;;;;;;;;;4964765;28;20065;-67
2023/06/04 11:40:17;;;;;;;58.30;11.23;;;;;;;;;;4945952;28;20399;-67
2023/06/04 11:42:45;;;;;;;33.28;10.68;;;;;;;;;;4947053;28;20055;-69
2023/06/04 11:45:16;;;;;;;35.20;13.80;;;;;;;;;;4951096;28;20457;-68
2023/06/04 11:47:49;;;;;;;42.50;18.70;;;;;;;;;;4963056;28;20126;-67
2023/06/04 11:50:16;;;;;;;112.93;62.92;;;;;;;;;;4966176;28;20045;-67
2023/06/04 11:52:43;;;;;;;56.55;51.30;;;;;;;;;;4966677;28;20043;-68
2023/06/04 11:55:10;;;;;;;60.00;49.53;;;;;;;;;;4966243;28;20492;-67
2023/06/04 11:57:37;;;;;;;53.17;46.88;;;;;;;;;;4965939;28;20053;-68
2023/06/04 12:00:09;;;;;;;59.78;54.85;;;;;;;;;;4965448;28;20050;-68
2023/06/04 12:02:36;;;;;;;74.15;62.13;;;;;;;;;;4953147;28;20496;-71
2023/06/04 12:05:13;;;;;;;68.90;62.25;;;;;;;;;;4969331;28;20408;-68
2023/06/04 12:07:40;;;;;;;172.93;75.57;;;;;;;;;;4963703;28;20055;-69
2023/06/04 12:10:08;;;;;;;58.15;52.65;;;;;;;;;;4950560;28;20047;-68
2023/06/04 12:12:35;;;;;;;66.05;59.75;;;;;;;;;;4965428;28;20077;-68
2023/06/04 12:15:03;;;;;;;65.18;58.28;;;;;;;;;;4963761;28;20357;-68
2023/06/04 12:17:30;;;;;;;154.07;55.30;;;;;;;;;;4966457;28;20047;-68
2023/06/04 12:19:58;;;;;;;108.68;51.63;;;;;;;;;;4964837;28;20043;-68
2023/06/04 12:22:28;;;;;;;52.78;43.53;;;;;;;;;;4964614;28;20407;-69
2023/06/04 12:24:56;;;;;;;54.95;42.90;;;;;;;;;;4953907;28;20497;-68
2023/06/04 12:27:23;;;;;;;83.38;46.45;;;;;;;;;;4947310;28;20497;-68
2023/06/04 12:29:56;;;;;;;68.60;40.25;;;;;;;;;;4951724;28;20039;-68
2023/06/04 12:32:23;;;;;;;109.05;47.63;;;;;;;;;;4965799;28;20505;-70
2023/06/04 12:34:50;;;;;;;51.58;46.03;;;;;;;;;;4957467;28;20445;-68
2023/06/04 12:37:16;;;;;;;133.70;60.15;;;;;;;;;;4965402;28;20054;-69
2023/06/04 12:39:43;;;;;;;73.10;65.05;;;;;;;;;;4965676;28;20038;-69
2023/06/04 12:42:09;;;;;;;97.35;73.35;;;;;;;;;;4964486;28;20066;-68
2023/06/04 12:44:37;;;;;;;78.53;71.13;;;;;;;;;;4967110;28;20074;-70
2023/06/04 12:47:04;;;;;;;81.80;73.43;;;;;;;;;;4963740;28;20046;-68
2023/06/04 12:49:31;;;;;;;81.30;74.72;;;;;;;;;;4965082;28;20047;-70
2023/06/04 12:51:58;;;;;;;143.82;85.13;;;;;;;;;;4968573;28;20070;-67
2023/06/04 12:54:26;;;;;;;117.97;106.53;;;;;;;;;;4953648;28;20133;-68
2023/06/04 12:56:53;;;;;;;205.70;190.43;;;;;;;;;;4967380;28;20067;-68
2023/06/04 12:59:20;;;;;;;233.77;210.15;;;;;;;;;;4968386;28;20049;-67
2023/06/04 13:01:47;;;;;;;213.13;193.88;;;;;;;;;;4964358;28;20050;-68
2023/06/04 13:04:14;;;;;;;177.10;164.50;;;;;;;;;;4953481;28;20063;-69
2023/06/04 13:06:40;;;;;;;161.90;149.18;;;;;;;;;;4963996;28;20133;-67
2023/06/04 13:09:11;;;;;;;167.02;152.15;;;;;;;;;;4955974;28;20051;-69
2023/06/04 13:11:40;;;;;;;158.68;145.93;;;;;;;;;;4970115;28;20066;-68
2023/06/04 13:14:08;;;;;;;132.80;122.63;;;;;;;;;;4948721;28;20065;-69
2023/06/04 13:16:35;;;;;;;130.45;120.07;;;;;;;;;;4966738;28;20062;-69
2023/06/04 13:19:02;;;;;;;116.13;106.63;;;;;;;;;;4965067;28;20649;-68
2023/06/04 13:21:29;;;;;;;116.55;106.20;;;;;;;;;;4962906;28;20043;-68
2023/06/04 13:23:56;;;;;;;117.85;108.10;;;;;;;;;;4966934;28;20047;-67
2023/06/04 13:26:22;;;;;;;131.20;113.03;;;;;;;;;;4964462;28;20043;-68
2023/06/04 13:28:49;;;;;;;107.15;98.90;;;;;;;;;;4963521;28;20133;-68
2023/06/04 13:31:16;;;;;;;107.85;99.53;;;;;;;;;;4964911;28;20046;-68
2023/06/04 13:33:43;;;;;;;112.55;103.22;;;;;;;;;;4968346;28;20054;-68
2023/06/04 13:36:10;;;;;;;124.85;114.65;;;;;;;;;;4937508;28;20047;-70
2023/06/04 13:38:36;;;;;;;125.85;113.38;;;;;;;;;;4954817;28;20046;-70
2023/06/04 13:41:03;;;;;;;133.85;121.60;;;;;;;;;;4962288;28;20047;-67
2023/06/04 13:43:30;;;;;;;130.27;118.13;;;;;;;;;;4962573;28;20481;-68
2023/06/04 13:45:57;;;;;;;131.65;121.57;;;;;;;;;;4965688;28;20070;-68
2023/06/04 13:48:24;;;;;;;129.25;119.47;;;;;;;;;;4964692;28;20051;-67
2023/06/04 13:50:50;;;;;;;136.85;124.15;;;;;;;;;;4964260;28;20067;-67
2023/06/04 13:53:17;;;;;;;166.98;150.23;;;;;;;;;;4962599;28;20050;-69
2023/06/04 13:55:45;;;;;;;152.70;140.38;;;;;;;;;;4963826;28;20047;-68
2023/06/04 13:58:13;;;;;;;151.20;140.13;;;;;;;;;;4954644;28;20046;-68
2023/06/04 14:00:40;;;;;;;151.13;137.98;;;;;;;;;;4949559;28;20125;-68
2023/06/04 14:03:06;;;;;;;158.82;146.05;;;;;;;;;;4966014;28;20085;-69
2023/06/04 14:05:33;;;;;;;162.65;150.43;;;;;;;;;;4964445;28;20378;-68
2023/06/04 14:07:59;;;;;;;176.18;162.30;;;;;;;;;;4967538;28;20078;-66